sensor_id;sensor_type;location;lat;lon;timestamp;P1;durP1;ratioP1;P2;durP2;ratioP2
26040;SDS011;13816;53.628;9.950;2023-02-28T00:01:04;4.37;;;3.20;;
26040;SDS011;13816;53.628;9.950;2023-02-28T00:03:31;5.93;;;3.27;;
26040;SDS011;13816;53.628;9.950;2023-02-28T00:06:02;6.60;;;3.50;;
26040;SDS011;13816;53.628;9.950;2023-02-28T00:08:28;4.87;;;2.80;;
26040;SDS011;13816;53.628;9.950;2023-02-28T00:10:54;7.60;;;3.20;;
26040;SDS011;13816;53.628;9.950;2023-02-28T00:13:20;7.47;;;2.83;;
26040;SDS011;13816;53.628;9.950;2023-02-28T00:15:46;6.23;;;2.60;;
26040;SDS011;13816;53.628;9.950;2023-02-28T00:18:12;6.60;;;2.90;;
26040;SDS011;13816;53.628;9.950;2023-02-28T00:20:39;6.17;;;2.70;;
26040;SDS011;13816;53.628;9.950;2023-02-28T00:23:05;4.73;;;2.50;;
26040;SDS011;13816;53.628;9.950;2023-02-28T00:25:31;5.30;;;2.70;;
26040;SDS011;13816;53.628;9.950;2023-02-28T00:27:57;6.40;;;2.60;;
26040;SDS011;13816;53.628;9.950;2023-02-28T00:30:24;4.73;;;2.60;;
26040;SDS011;13816;53.628;9.950;2023-02-28T00:32:52;5.10;;;3.30;;
26040;SDS011;13816;53.628;9.950;2023-02-28T00:38:47;8.07;;;3.40;;
26040;SDS011;13816;53.628;9.950;2023-02-28T00:41:33;6.80;;;2.73;;
26040;SDS011;13816;53.628;9.950;2023-02-28T00:43:59;4.80;;;3.00;;
26040;SDS011;13816;53.628;9.950;2023-02-28T00:46:25;6.77;;;2.27;;
26040;SDS011;13816;53.628;9.950;2023-02-28T00:48:51;5.93;;;2.80;;
26040;SDS011;13816;53.628;9.950;2023-02-28T00:51:17;4.77;;;2.60;;
26040;SDS011;13816;53.628;9.950;2023-02-28T00:53:43;5.27;;;2.53;;
26040;SDS011;13816;53.628;9.950;2023-02-28T00:56:10;4.70;;;2.57;;
26040;SDS011;13816;53.628;9.950;2023-02-28T00:58:36;4.77;;;3.03;;
26040;SDS011;13816;53.628;9.950;2023-02-28T01:01:03;4.90;;;2.70;;
26040;SDS011;13816;53.628;9.950;2023-02-28T01:03:29;4.73;;;2.47;;
26040;SDS011;13816;53.628;9.950;2023-02-28T01:05:57;3.93;;;2.40;;
26040;SDS011;13816;53.628;9.950;2023-02-28T01:08:23;4.57;;;2.70;;
26040;SDS011;13816;53.628;9.950;2023-02-28T01:10:51;7.50;;;2.90;;
26040;SDS011;13816;53.628;9.950;2023-02-28T01:13:17;5.50;;;3.10;;
26040;SDS011;13816;53.628;9.950;2023-02-28T01:15:48;5.17;;;2.67;;
26040;SDS011;13816;53.628;9.950;2023-02-28T01:18:15;4.50;;;3.03;;
26040;SDS011;13816;53.628;9.950;2023-02-28T01:20:41;6.80;;;2.80;;
26040;SDS011;13816;53.628;9.950;2023-02-28T01:23:08;9.47;;;3.10;;
26040;SDS011;13816;53.628;9.950;2023-02-28T01:25:35;5.27;;;2.93;;
26040;SDS011;13816;53.628;9.950;2023-02-28T01:28:03;6.40;;;3.00;;
26040;SDS011;13816;53.628;9.950;2023-02-28T01:30:30;6.73;;;3.53;;
26040;SDS011;13816;53.628;9.950;2023-02-28T01:32:58;7.50;;;3.50;;
26040;SDS011;13816;53.628;9.950;2023-02-28T01:35:24;6.70;;;3.20;;
26040;SDS011;13816;53.628;9.950;2023-02-28T01:37:51;7.87;;;3.03;;
26040;SDS011;13816;53.628;9.950;2023-02-28T01:40:17;5.37;;;3.07;;
26040;SDS011;13816;53.628;9.950;2023-02-28T01:42:43;6.17;;;2.90;;
26040;SDS011;13816;53.628;9.950;2023-02-28T01:47:42;5.77;;;2.60;;
26040;SDS011;13816;53.628;9.950;2023-02-28T01:50:13;9.93;;;2.77;;
26040;SDS011;13816;53.628;9.950;2023-02-28T01:52:40;10.90;;;3.13;;
26040;SDS011;13816;53.628;9.950;2023-02-28T01:55:07;5.43;;;2.90;;
26040;SDS011;13816;53.628;9.950;2023-02-28T01:57:36;6.57;;;3.10;;
26040;SDS011;13816;53.628;9.950;2023-02-28T02:00:07;5.13;;;2.77;;
26040;SDS011;13816;53.628;9.950;2023-02-28T02:02:45;6.70;;;2.63;;
26040;SDS011;13816;53.628;9.950;2023-02-28T02:07:43;5.70;;;3.17;;
26040;SDS011;13816;53.628;9.950;2023-02-28T02:12:47;4.03;;;3.10;;
26040;SDS011;13816;53.628;9.950;2023-02-28T02:18:26;6.10;;;2.67;;
26040;SDS011;13816;53.628;9.950;2023-02-28T02:36:45;8.93;;;2.60;;
26040;SDS011;13816;53.628;9.950;2023-02-28T02:39:16;8.70;;;2.90;;
26040;SDS011;13816;53.628;9.950;2023-02-28T02:41:49;11.03;;;2.93;;
26040;SDS011;13816;53.628;9.950;2023-02-28T02:47:03;4.30;;;2.80;;
26040;SDS011;13816;53.628;9.950;2023-02-28T02:49:33;3.83;;;2.40;;
26040;SDS011;13816;53.628;9.950;2023-02-28T02:52:06;5.30;;;3.20;;
26040;SDS011;13816;53.628;9.950;2023-02-28T02:54:36;7.10;;;3.10;;
26040;SDS011;13816;53.628;9.950;2023-02-28T02:57:05;9.93;;;3.43;;
26040;SDS011;13816;53.628;9.950;2023-02-28T02:59:33;13.90;;;3.10;;
26040;SDS011;13816;53.628;9.950;2023-02-28T03:02:01;8.73;;;2.83;;
26040;SDS011;13816;53.628;9.950;2023-02-28T03:04:34;4.73;;;2.90;;
26040;SDS011;13816;53.628;9.950;2023-02-28T03:07:02;5.13;;;2.73;;
26040;SDS011;13816;53.628;9.950;2023-02-28T03:09:28;6.13;;;3.00;;
26040;SDS011;13816;53.628;9.950;2023-02-28T03:11:55;8.57;;;3.80;;
26040;SDS011;13816;53.628;9.950;2023-02-28T03:16:58;5.23;;;2.87;;
26040;SDS011;13816;53.628;9.950;2023-02-28T03:25:05;6.83;;;3.93;;
26040;SDS011;13816;53.628;9.950;2023-02-28T03:27:25;4.30;;;3.00;;
26040;SDS011;13816;53.628;9.950;2023-02-28T03:30:00;6.17;;;3.30;;
26040;SDS011;13816;53.628;9.950;2023-02-28T03:32:36;8.50;;;3.50;;
26040;SDS011;13816;53.628;9.950;2023-02-28T03:35:09;4.77;;;3.23;;
26040;SDS011;13816;53.628;9.950;2023-02-28T03:37:37;10.83;;;3.77;;
26040;SDS011;13816;53.628;9.950;2023-02-28T03:40:08;5.63;;;3.53;;
26040;SDS011;13816;53.628;9.950;2023-02-28T03:42:38;4.63;;;3.63;;
26040;SDS011;13816;53.628;9.950;2023-02-28T03:45:08;9.03;;;3.57;;
26040;SDS011;13816;53.628;9.950;2023-02-28T03:47:46;12.43;;;3.60;;
26040;SDS011;13816;53.628;9.950;2023-02-28T03:52:43;9.63;;;3.07;;
26040;SDS011;13816;53.628;9.950;2023-02-28T03:55:11;6.40;;;3.80;;
26040;SDS011;13816;53.628;9.950;2023-02-28T03:57:40;4.53;;;3.50;;
26040;SDS011;13816;53.628;9.950;2023-02-28T04:02:40;12.50;;;3.37;;
26040;SDS011;13816;53.628;9.950;2023-02-28T04:05:06;4.70;;;3.20;;
26040;SDS011;13816;53.628;9.950;2023-02-28T04:07:32;5.77;;;3.43;;
26040;SDS011;13816;53.628;9.950;2023-02-28T04:09:58;9.30;;;3.40;;
26040;SDS011;13816;53.628;9.950;2023-02-28T04:12:25;6.07;;;3.63;;
26040;SDS011;13816;53.628;9.950;2023-02-28T04:14:51;5.53;;;3.50;;
26040;SDS011;13816;53.628;9.950;2023-02-28T04:17:17;7.03;;;3.00;;
26040;SDS011;13816;53.628;9.950;2023-02-28T04:19:43;5.10;;;3.10;;
26040;SDS011;13816;53.628;9.950;2023-02-28T04:22:10;6.47;;;3.80;;
26040;SDS011;13816;53.628;9.950;2023-02-28T04:24:36;6.00;;;3.63;;
26040;SDS011;13816;53.628;9.950;2023-02-28T04:27:06;9.03;;;4.10;;
26040;SDS011;13816;53.628;9.950;2023-02-28T04:29:32;4.43;;;3.23;;
26040;SDS011;13816;53.628;9.950;2023-02-28T04:32:00;6.13;;;3.80;;
26040;SDS011;13816;53.628;9.950;2023-02-28T04:34:26;5.87;;;3.57;;
26040;SDS011;13816;53.628;9.950;2023-02-28T04:36:53;6.10;;;2.97;;
26040;SDS011;13816;53.628;9.950;2023-02-28T04:39:20;7.03;;;3.73;;
26040;SDS011;13816;53.628;9.950;2023-02-28T04:41:46;7.83;;;3.63;;
26040;SDS011;13816;53.628;9.950;2023-02-28T04:44:13;7.97;;;3.60;;
26040;SDS011;13816;53.628;9.950;2023-02-28T04:46:39;6.53;;;3.93;;
26040;SDS011;13816;53.628;9.950;2023-02-28T04:49:05;6.60;;;3.77;;
26040;SDS011;13816;53.628;9.950;2023-02-28T04:51:32;8.17;;;3.80;;
26040;SDS011;13816;53.628;9.950;2023-02-28T04:53:58;8.47;;;3.80;;
26040;SDS011;13816;53.628;9.950;2023-02-28T04:56:24;5.73;;;3.70;;
26040;SDS011;13816;53.628;9.950;2023-02-28T04:58:50;7.60;;;3.53;;
26040;SDS011;13816;53.628;9.950;2023-02-28T05:03:44;6.80;;;3.93;;
26040;SDS011;13816;53.628;9.950;2023-02-28T05:06:11;6.83;;;3.90;;
26040;SDS011;13816;53.628;9.950;2023-02-28T05:08:37;7.53;;;3.90;;
26040;SDS011;13816;53.628;9.950;2023-02-28T05:11:03;4.93;;;3.23;;
26040;SDS011;13816;53.628;9.950;2023-02-28T05:13:30;6.37;;;4.10;;
26040;SDS011;13816;53.628;9.950;2023-02-28T05:15:56;8.67;;;3.83;;
26040;SDS011;13816;53.628;9.950;2023-02-28T05:18:22;6.23;;;3.80;;
26040;SDS011;13816;53.628;9.950;2023-02-28T05:20:48;9.70;;;4.00;;
26040;SDS011;13816;53.628;9.950;2023-02-28T05:23:14;5.67;;;3.93;;
26040;SDS011;13816;53.628;9.950;2023-02-28T05:25:41;3.63;;;3.33;;
26040;SDS011;13816;53.628;9.950;2023-02-28T05:28:08;4.53;;;3.80;;
26040;SDS011;13816;53.628;9.950;2023-02-28T05:30:35;6.43;;;4.10;;
26040;SDS011;13816;53.628;9.950;2023-02-28T05:33:02;6.30;;;4.60;;
26040;SDS011;13816;53.628;9.950;2023-02-28T05:35:28;4.80;;;4.03;;
26040;SDS011;13816;53.628;9.950;2023-02-28T05:37:54;6.50;;;3.87;;
26040;SDS011;13816;53.628;9.950;2023-02-28T05:40:23;5.53;;;3.70;;
26040;SDS011;13816;53.628;9.950;2023-02-28T05:42:50;10.97;;;6.30;;
26040;SDS011;13816;53.628;9.950;2023-02-28T05:45:16;11.40;;;7.63;;
26040;SDS011;13816;53.628;9.950;2023-02-28T05:47:42;12.20;;;6.70;;
26040;SDS011;13816;53.628;9.950;2023-02-28T05:50:08;13.10;;;9.67;;
26040;SDS011;13816;53.628;9.950;2023-02-28T05:52:35;17.63;;;10.70;;
26040;SDS011;13816;53.628;9.950;2023-02-28T05:55:02;16.93;;;11.83;;
26040;SDS011;13816;53.628;9.950;2023-02-28T05:57:28;16.47;;;11.20;;
26040;SDS011;13816;53.628;9.950;2023-02-28T05:59:55;20.50;;;10.60;;
26040;SDS011;13816;53.628;9.950;2023-02-28T06:02:21;16.30;;;9.33;;
26040;SDS011;13816;53.628;9.950;2023-02-28T06:04:47;13.13;;;9.73;;
26040;SDS011;13816;53.628;9.950;2023-02-28T06:07:14;10.53;;;7.90;;
26040;SDS011;13816;53.628;9.950;2023-02-28T06:09:40;14.17;;;9.60;;
26040;SDS011;13816;53.628;9.950;2023-02-28T06:12:09;13.70;;;8.93;;
26040;SDS011;13816;53.628;9.950;2023-02-28T06:14:35;12.80;;;8.17;;
26040;SDS011;13816;53.628;9.950;2023-02-28T06:17:02;11.33;;;7.50;;
26040;SDS011;13816;53.628;9.950;2023-02-28T06:19:29;12.17;;;7.00;;
26040;SDS011;13816;53.628;9.950;2023-02-28T06:21:56;9.20;;;6.30;;
26040;SDS011;13816;53.628;9.950;2023-02-28T06:24:22;12.10;;;7.10;;
26040;SDS011;13816;53.628;9.950;2023-02-28T06:26:49;10.17;;;6.03;;
26040;SDS011;13816;53.628;9.950;2023-02-28T06:29:15;15.10;;;5.93;;
26040;SDS011;13816;53.628;9.950;2023-02-28T06:31:43;11.90;;;6.50;;
26040;SDS011;13816;53.628;9.950;2023-02-28T06:34:10;11.30;;;5.80;;
26040;SDS011;13816;53.628;9.950;2023-02-28T06:36:40;11.53;;;6.80;;
26040;SDS011;13816;53.628;9.950;2023-02-28T06:39:06;15.37;;;6.20;;
26040;SDS011;13816;53.628;9.950;2023-02-28T06:41:33;8.50;;;5.77;;
26040;SDS011;13816;53.628;9.950;2023-02-28T06:44:04;10.70;;;5.70;;
26040;SDS011;13816;53.628;9.950;2023-02-28T06:46:30;8.00;;;4.80;;
26040;SDS011;13816;53.628;9.950;2023-02-28T06:48:57;9.90;;;5.90;;
26040;SDS011;13816;53.628;9.950;2023-02-28T06:51:23;11.43;;;5.17;;
26040;SDS011;13816;53.628;9.950;2023-02-28T06:53:50;8.53;;;5.37;;
26040;SDS011;13816;53.628;9.950;2023-02-28T06:56:17;13.33;;;5.10;;
26040;SDS011;13816;53.628;9.950;2023-02-28T06:58:47;11.40;;;5.97;;
26040;SDS011;13816;53.628;9.950;2023-02-28T07:01:13;9.43;;;5.50;;
26040;SDS011;13816;53.628;9.950;2023-02-28T07:03:40;9.27;;;5.40;;
26040;SDS011;13816;53.628;9.950;2023-02-28T07:06:06;7.63;;;4.53;;
26040;SDS011;13816;53.628;9.950;2023-02-28T07:08:33;8.23;;;5.60;;
26040;SDS011;13816;53.628;9.950;2023-02-28T07:10:59;10.83;;;5.10;;
26040;SDS011;13816;53.628;9.950;2023-02-28T07:13:25;11.60;;;6.60;;
26040;SDS011;13816;53.628;9.950;2023-02-28T07:16:02;9.40;;;5.47;;
26040;SDS011;13816;53.628;9.950;2023-02-28T07:18:29;11.33;;;5.73;;
26040;SDS011;13816;53.628;9.950;2023-02-28T07:20:55;11.60;;;6.23;;
26040;SDS011;13816;53.628;9.950;2023-02-28T07:23:21;17.20;;;5.53;;
26040;SDS011;13816;53.628;9.950;2023-02-28T07:25:47;12.30;;;6.23;;
26040;SDS011;13816;53.628;9.950;2023-02-28T07:28:13;12.10;;;6.60;;
26040;SDS011;13816;53.628;9.950;2023-02-28T07:30:40;8.00;;;5.13;;
26040;SDS011;13816;53.628;9.950;2023-02-28T07:33:06;13.67;;;6.17;;
26040;SDS011;13816;53.628;9.950;2023-02-28T07:35:32;12.67;;;6.73;;
26040;SDS011;13816;53.628;9.950;2023-02-28T07:37:59;11.63;;;6.70;;
26040;SDS011;13816;53.628;9.950;2023-02-28T07:40:25;11.70;;;6.83;;
26040;SDS011;13816;53.628;9.950;2023-02-28T07:42:51;11.70;;;6.83;;
26040;SDS011;13816;53.628;9.950;2023-02-28T07:45:18;9.30;;;5.83;;
26040;SDS011;13816;53.628;9.950;2023-02-28T07:47:44;15.57;;;7.53;;
26040;SDS011;13816;53.628;9.950;2023-02-28T07:50:12;16.77;;;8.13;;
26040;SDS011;13816;53.628;9.950;2023-02-28T07:52:39;13.00;;;7.23;;
26040;SDS011;13816;53.628;9.950;2023-02-28T07:55:06;12.27;;;7.00;;
26040;SDS011;13816;53.628;9.950;2023-02-28T07:57:32;19.40;;;8.13;;
26040;SDS011;13816;53.628;9.950;2023-02-28T07:59:59;13.67;;;6.90;;
26040;SDS011;13816;53.628;9.950;2023-02-28T08:02:25;13.47;;;7.30;;
26040;SDS011;13816;53.628;9.950;2023-02-28T08:04:52;14.00;;;8.80;;
26040;SDS011;13816;53.628;9.950;2023-02-28T08:07:18;12.70;;;6.33;;
26040;SDS011;13816;53.628;9.950;2023-02-28T08:09:44;10.23;;;6.63;;
26040;SDS011;13816;53.628;9.950;2023-02-28T08:12:11;16.23;;;7.07;;
26040;SDS011;13816;53.628;9.950;2023-02-28T08:14:37;18.77;;;5.43;;
26040;SDS011;13816;53.628;9.950;2023-02-28T08:17:04;10.80;;;5.30;;
26040;SDS011;13816;53.628;9.950;2023-02-28T08:19:31;13.80;;;5.60;;
26040;SDS011;13816;53.628;9.950;2023-02-28T08:21:57;10.20;;;4.60;;
26040;SDS011;13816;53.628;9.950;2023-02-28T08:24:23;9.93;;;4.00;;
26040;SDS011;13816;53.628;9.950;2023-02-28T08:26:49;5.93;;;3.90;;
26040;SDS011;13816;53.628;9.950;2023-02-28T08:29:16;6.63;;;3.10;;
26040;SDS011;13816;53.628;9.950;2023-02-28T08:31:42;9.47;;;4.00;;
26040;SDS011;13816;53.628;9.950;2023-02-28T08:34:09;5.17;;;2.37;;
26040;SDS011;13816;53.628;9.950;2023-02-28T08:36:36;4.93;;;3.17;;
26040;SDS011;13816;53.628;9.950;2023-02-28T08:39:02;4.03;;;2.40;;
26040;SDS011;13816;53.628;9.950;2023-02-28T08:41:28;9.00;;;2.83;;
26040;SDS011;13816;53.628;9.950;2023-02-28T08:43:55;7.40;;;3.70;;
26040;SDS011;13816;53.628;9.950;2023-02-28T08:46:21;9.10;;;3.20;;
26040;SDS011;13816;53.628;9.950;2023-02-28T08:48:51;8.27;;;3.07;;
26040;SDS011;13816;53.628;9.950;2023-02-28T08:51:17;6.13;;;2.93;;
26040;SDS011;13816;53.628;9.950;2023-02-28T08:53:47;4.40;;;2.63;;
26040;SDS011;13816;53.628;9.950;2023-02-28T08:56:16;5.63;;;2.90;;
26040;SDS011;13816;53.628;9.950;2023-02-28T08:58:43;4.53;;;2.47;;
26040;SDS011;13816;53.628;9.950;2023-02-28T09:01:14;4.40;;;2.10;;
26040;SDS011;13816;53.628;9.950;2023-02-28T09:03:41;2.70;;;1.80;;
26040;SDS011;13816;53.628;9.950;2023-02-28T09:06:08;2.40;;;1.37;;
26040;SDS011;13816;53.628;9.950;2023-02-28T09:08:34;10.83;;;2.40;;
26040;SDS011;13816;53.628;9.950;2023-02-28T09:11:01;3.43;;;1.30;;
26040;SDS011;13816;53.628;9.950;2023-02-28T09:13:28;4.60;;;2.63;;
26040;SDS011;13816;53.628;9.950;2023-02-28T09:15:56;7.60;;;2.20;;
26040;SDS011;13816;53.628;9.950;2023-02-28T09:18:22;2.70;;;1.70;;
26040;SDS011;13816;53.628;9.950;2023-02-28T09:20:49;5.67;;;2.10;;
26040;SDS011;13816;53.628;9.950;2023-02-28T09:23:15;1.90;;;1.40;;
26040;SDS011;13816;53.628;9.950;2023-02-28T09:25:45;4.10;;;1.80;;
26040;SDS011;13816;53.628;9.950;2023-02-28T09:28:12;5.40;;;1.90;;
26040;SDS011;13816;53.628;9.950;2023-02-28T09:30:41;3.93;;;1.40;;
26040;SDS011;13816;53.628;9.950;2023-02-28T09:33:07;1.70;;;1.40;;
26040;SDS011;13816;53.628;9.950;2023-02-28T09:35:33;1.90;;;1.60;;
26040;SDS011;13816;53.628;9.950;2023-02-28T09:37:59;2.50;;;1.70;;
26040;SDS011;13816;53.628;9.950;2023-02-28T09:40:27;4.07;;;1.93;;
26040;SDS011;13816;53.628;9.950;2023-02-28T09:42:55;5.47;;;2.40;;
26040;SDS011;13816;53.628;9.950;2023-02-28T09:47:48;4.90;;;2.53;;
26040;SDS011;13816;53.628;9.950;2023-02-28T09:52:54;3.77;;;1.63;;
26040;SDS011;13816;53.628;9.950;2023-02-28T09:55:33;2.50;;;1.70;;
26040;SDS011;13816;53.628;9.950;2023-02-28T09:58:02;3.00;;;2.00;;
26040;SDS011;13816;53.628;9.950;2023-02-28T10:00:30;1.90;;;1.40;;
26040;SDS011;13816;53.628;9.950;2023-02-28T10:03:06;3.50;;;1.93;;
26040;SDS011;13816;53.628;9.950;2023-02-28T10:05:38;4.23;;;1.97;;
26040;SDS011;13816;53.628;9.950;2023-02-28T10:08:07;9.30;;;2.27;;
26040;SDS011;13816;53.628;9.950;2023-02-28T10:10:37;1.87;;;1.77;;
26040;SDS011;13816;53.628;9.950;2023-02-28T10:13:06;2.13;;;1.77;;
26040;SDS011;13816;53.628;9.950;2023-02-28T10:15:37;3.47;;;1.60;;
26040;SDS011;13816;53.628;9.950;2023-02-28T10:18:05;2.40;;;1.90;;
26040;SDS011;13816;53.628;9.950;2023-02-28T10:20:33;2.47;;;1.50;;
26040;SDS011;13816;53.628;9.950;2023-02-28T10:25:33;2.77;;;2.20;;
26040;SDS011;13816;53.628;9.950;2023-02-28T10:28:08;2.67;;;1.80;;
26040;SDS011;13816;53.628;9.950;2023-02-28T10:30:36;3.83;;;1.47;;
26040;SDS011;13816;53.628;9.950;2023-02-28T10:33:04;1.80;;;1.70;;
26040;SDS011;13816;53.628;9.950;2023-02-28T10:35:30;3.03;;;2.17;;
26040;SDS011;13816;53.628;9.950;2023-02-28T10:37:59;3.00;;;2.07;;
26040;SDS011;13816;53.628;9.950;2023-02-28T10:40:31;6.73;;;2.30;;
26040;SDS011;13816;53.628;9.950;2023-02-28T10:45:24;4.23;;;1.97;;
26040;SDS011;13816;53.628;9.950;2023-02-28T10:47:52;9.83;;;2.10;;
26040;SDS011;13816;53.628;9.950;2023-02-28T10:52:52;2.03;;;1.83;;
26040;SDS011;13816;53.628;9.950;2023-02-28T10:55:23;3.90;;;1.60;;
26040;SDS011;13816;53.628;9.950;2023-02-28T10:57:53;4.23;;;1.40;;
26040;SDS011;13816;53.628;9.950;2023-02-28T11:00:23;1.80;;;1.43;;
26040;SDS011;13816;53.628;9.950;2023-02-28T11:02:50;1.43;;;1.33;;
26040;SDS011;13816;53.628;9.950;2023-02-28T11:07:53;2.83;;;2.03;;
26040;SDS011;13816;53.628;9.950;2023-02-28T11:10:20;1.63;;;1.53;;
26040;SDS011;13816;53.628;9.950;2023-02-28T11:12:46;5.00;;;1.60;;
26040;SDS011;13816;53.628;9.950;2023-02-28T11:20:28;3.20;;;1.50;;
26040;SDS011;13816;53.628;9.950;2023-02-28T11:22:55;2.40;;;1.50;;
26040;SDS011;13816;53.628;9.950;2023-02-28T11:25:30;2.30;;;1.67;;
26040;SDS011;13816;53.628;9.950;2023-02-28T11:27:58;3.27;;;2.30;;
26040;SDS011;13816;53.628;9.950;2023-02-28T11:30:27;2.70;;;2.00;;
26040;SDS011;13816;53.628;9.950;2023-02-28T11:32:53;5.10;;;2.30;;
26040;SDS011;13816;53.628;9.950;2023-02-28T11:35:38;6.33;;;1.60;;
26040;SDS011;13816;53.628;9.950;2023-02-28T11:38:07;2.13;;;1.93;;
26040;SDS011;13816;53.628;9.950;2023-02-28T11:40:39;2.47;;;1.57;;
26040;SDS011;13816;53.628;9.950;2023-02-28T11:48:27;2.70;;;1.60;;
26040;SDS011;13816;53.628;9.950;2023-02-28T11:51:01;2.03;;;1.47;;
26040;SDS011;13816;53.628;9.950;2023-02-28T11:53:48;2.63;;;1.93;;
26040;SDS011;13816;53.628;9.950;2023-02-28T11:56:23;3.10;;;1.70;;
26040;SDS011;13816;53.628;9.950;2023-02-28T12:01:28;4.20;;;2.10;;
26040;SDS011;13816;53.628;9.950;2023-02-28T12:04:15;1.90;;;1.80;;
26040;SDS011;13816;53.628;9.950;2023-02-28T12:06:55;3.97;;;1.70;;
26040;SDS011;13816;53.628;9.950;2023-02-28T12:09:33;2.10;;;1.87;;
26040;SDS011;13816;53.628;9.950;2023-02-28T12:14:59;2.27;;;1.87;;
26040;SDS011;13816;53.628;9.950;2023-02-28T12:22:33;2.93;;;2.07;;
26040;SDS011;13816;53.628;9.950;2023-02-28T12:27:40;4.30;;;1.90;;
26040;SDS011;13816;53.628;9.950;2023-02-28T12:32:38;2.70;;;1.80;;
26040;SDS011;13816;53.628;9.950;2023-02-28T12:37:36;2.73;;;1.87;;
26040;SDS011;13816;53.628;9.950;2023-02-28T12:40:09;6.30;;;2.10;;
26040;SDS011;13816;53.628;9.950;2023-02-28T12:42:38;2.17;;;1.97;;
26040;SDS011;13816;53.628;9.950;2023-02-28T12:47:35;2.33;;;1.70;;
26040;SDS011;13816;53.628;9.950;2023-02-28T12:50:09;2.87;;;2.43;;
26040;SDS011;13816;53.628;9.950;2023-02-28T12:55:40;2.83;;;1.70;;
26040;SDS011;13816;53.628;9.950;2023-02-28T13:10:58;4.57;;;2.33;;
26040;SDS011;13816;53.628;9.950;2023-02-28T13:13:25;4.17;;;2.40;;
26040;SDS011;13816;53.628;9.950;2023-02-28T13:16:07;3.83;;;1.88;;
26040;SDS011;13816;53.628;9.950;2023-02-28T13:18:38;8.07;;;2.50;;
26040;SDS011;13816;53.628;9.950;2023-02-28T13:21:08;3.10;;;2.13;;
26040;SDS011;13816;53.628;9.950;2023-02-28T13:26:01;2.47;;;2.27;;
26040;SDS011;13816;53.628;9.950;2023-02-28T13:31:13;2.27;;;2.07;;
26040;SDS011;13816;53.628;9.950;2023-02-28T13:38:48;5.83;;;1.60;;
26040;SDS011;13816;53.628;9.950;2023-02-28T13:44:16;2.77;;;2.00;;
26040;SDS011;13816;53.628;9.950;2023-02-28T13:51:51;3.60;;;2.10;;
26040;SDS011;13816;53.628;9.950;2023-02-28T13:54:33;2.83;;;2.13;;
26040;SDS011;13816;53.628;9.950;2023-02-28T13:57:15;3.30;;;2.20;;
26040;SDS011;13816;53.628;9.950;2023-02-28T14:02:25;3.20;;;2.50;;
26040;SDS011;13816;53.628;9.950;2023-02-28T14:05:13;4.23;;;2.00;;
26040;SDS011;13816;53.628;9.950;2023-02-28T14:07:52;4.07;;;2.33;;
26040;SDS011;13816;53.628;9.950;2023-02-28T14:10:30;2.50;;;2.20;;
26040;SDS011;13816;53.628;9.950;2023-02-28T14:15:28;5.40;;;2.10;;
26040;SDS011;13816;53.628;9.950;2023-02-28T14:17:56;2.40;;;1.90;;
26040;SDS011;13816;53.628;9.950;2023-02-28T14:20:25;13.77;;;2.40;;
26040;SDS011;13816;53.628;9.950;2023-02-28T14:25:44;4.07;;;2.40;;
26040;SDS011;13816;53.628;9.950;2023-02-28T14:36:03;6.90;;;2.30;;
26040;SDS011;13816;53.628;9.950;2023-02-28T14:43:59;4.87;;;1.90;;
26040;SDS011;13816;53.628;9.950;2023-02-28T14:46:30;3.50;;;2.73;;
26040;SDS011;13816;53.628;9.950;2023-02-28T14:48:59;3.53;;;2.60;;
26040;SDS011;13816;53.628;9.950;2023-02-28T14:51:26;4.67;;;2.47;;
26040;SDS011;13816;53.628;9.950;2023-02-28T14:54:01;5.07;;;2.30;;
26040;SDS011;13816;53.628;9.950;2023-02-28T14:56:36;4.37;;;2.63;;
26040;SDS011;13816;53.628;9.950;2023-02-28T14:59:03;8.70;;;2.97;;
26040;SDS011;13816;53.628;9.950;2023-02-28T15:01:30;2.50;;;2.13;;
26040;SDS011;13816;53.628;9.950;2023-02-28T15:04:03;2.13;;;1.93;;
26040;SDS011;13816;53.628;9.950;2023-02-28T15:06:30;7.63;;;2.50;;
26040;SDS011;13816;53.628;9.950;2023-02-28T15:09:06;2.97;;;2.20;;
26040;SDS011;13816;53.628;9.950;2023-02-28T15:11:33;5.40;;;2.40;;
26040;SDS011;13816;53.628;9.950;2023-02-28T15:13:59;3.80;;;2.10;;
26040;SDS011;13816;53.628;9.950;2023-02-28T15:16:36;6.30;;;2.73;;
26040;SDS011;13816;53.628;9.950;2023-02-28T15:19:14;3.50;;;1.93;;
26040;SDS011;13816;53.628;9.950;2023-02-28T15:22:30;3.37;;;2.40;;
26040;SDS011;13816;53.628;9.950;2023-02-28T15:25:01;4.23;;;2.43;;
26040;SDS011;13816;53.628;9.950;2023-02-28T15:27:29;2.43;;;2.23;;
26040;SDS011;13816;53.628;9.950;2023-02-28T15:29:58;4.70;;;2.00;;
26040;SDS011;13816;53.628;9.950;2023-02-28T15:32:35;2.83;;;1.90;;
26040;SDS011;13816;53.628;9.950;2023-02-28T15:38:13;3.00;;;2.40;;
26040;SDS011;13816;53.628;9.950;2023-02-28T15:40:41;5.60;;;1.90;;
26040;SDS011;13816;53.628;9.950;2023-02-28T15:43:17;2.60;;;2.17;;
26040;SDS011;13816;53.628;9.950;2023-02-28T15:45:47;4.60;;;2.53;;
26040;SDS011;13816;53.628;9.950;2023-02-28T15:48:18;2.77;;;2.00;;
26040;SDS011;13816;53.628;9.950;2023-02-28T15:50:49;9.70;;;2.93;;
26040;SDS011;13816;53.628;9.950;2023-02-28T15:53:17;3.30;;;2.30;;
26040;SDS011;13816;53.628;9.950;2023-02-28T15:55:43;4.90;;;2.30;;
26040;SDS011;13816;53.628;9.950;2023-02-28T15:58:10;2.00;;;1.83;;
26040;SDS011;13816;53.628;9.950;2023-02-28T16:00:38;3.07;;;1.80;;
26040;SDS011;13816;53.628;9.950;2023-02-28T16:03:23;1.83;;;1.70;;
26040;SDS011;13816;53.628;9.950;2023-02-28T16:06:07;2.60;;;1.93;;
26040;SDS011;13816;53.628;9.950;2023-02-28T16:08:34;3.90;;;2.60;;
26040;SDS011;13816;53.628;9.950;2023-02-28T16:11:00;3.67;;;2.43;;
26040;SDS011;13816;53.628;9.950;2023-02-28T16:13:26;3.90;;;1.83;;
26040;SDS011;13816;53.628;9.950;2023-02-28T16:15:52;4.30;;;2.33;;
26040;SDS011;13816;53.628;9.950;2023-02-28T16:18:19;4.97;;;2.70;;
26040;SDS011;13816;53.628;9.950;2023-02-28T16:20:45;4.07;;;2.17;;
26040;SDS011;13816;53.628;9.950;2023-02-28T16:23:11;3.30;;;2.30;;
26040;SDS011;13816;53.628;9.950;2023-02-28T16:25:42;3.33;;;2.67;;
26040;SDS011;13816;53.628;9.950;2023-02-28T16:28:23;7.50;;;2.83;;
26040;SDS011;13816;53.628;9.950;2023-02-28T16:30:53;12.63;;;2.50;;
26040;SDS011;13816;53.628;9.950;2023-02-28T16:33:19;4.33;;;2.57;;
26040;SDS011;13816;53.628;9.950;2023-02-28T16:35:45;4.30;;;2.30;;
26040;SDS011;13816;53.628;9.950;2023-02-28T16:38:11;4.07;;;2.30;;
26040;SDS011;13816;53.628;9.950;2023-02-28T16:40:37;4.10;;;2.40;;
26040;SDS011;13816;53.628;9.950;2023-02-28T16:43:13;3.77;;;2.20;;
26040;SDS011;13816;53.628;9.950;2023-02-28T16:45:41;4.47;;;2.90;;
26040;SDS011;13816;53.628;9.950;2023-02-28T16:48:08;4.80;;;2.40;;
26040;SDS011;13816;53.628;9.950;2023-02-28T16:50:38;6.27;;;3.73;;
26040;SDS011;13816;53.628;9.950;2023-02-28T16:53:04;5.23;;;2.80;;
26040;SDS011;13816;53.628;9.950;2023-02-28T16:55:30;5.23;;;3.07;;
26040;SDS011;13816;53.628;9.950;2023-02-28T16:57:57;2.97;;;2.40;;
26040;SDS011;13816;53.628;9.950;2023-02-28T17:00:23;5.30;;;2.80;;
26040;SDS011;13816;53.628;9.950;2023-02-28T17:02:50;3.00;;;2.70;;
26040;SDS011;13816;53.628;9.950;2023-02-28T17:05:16;10.67;;;3.20;;
26040;SDS011;13816;53.628;9.950;2023-02-28T17:07:43;8.70;;;3.13;;
26040;SDS011;13816;53.628;9.950;2023-02-28T17:10:20;3.57;;;3.07;;
26040;SDS011;13816;53.628;9.950;2023-02-28T17:12:47;5.60;;;2.90;;
26040;SDS011;13816;53.628;9.950;2023-02-28T17:15:14;10.07;;;4.23;;
26040;SDS011;13816;53.628;9.950;2023-02-28T17:17:41;10.00;;;3.40;;
26040;SDS011;13816;53.628;9.950;2023-02-28T17:20:14;13.60;;;3.33;;
26040;SDS011;13816;53.628;9.950;2023-02-28T17:22:40;12.27;;;3.83;;
26040;SDS011;13816;53.628;9.950;2023-02-28T17:25:07;9.53;;;3.33;;
26040;SDS011;13816;53.628;9.950;2023-02-28T17:27:33;6.20;;;3.47;;